Time;durP1;ratioP1;P1;durP2;ratioP2;P2;SDS_P1;SDS_P2;PMS_P1;PMS_P2;Temp;Humidity;BMP_temperature;BMP_pressure;BME280_temperature;BME280_humidity;BME280_pressure;Samples;Min_cycle;Max_cycle;Signal;HPM_P1;HPM_P2
2023/12/04 00:01:28;;;;;;;27.07;16.07;;;-0.30;99.90;;;;;;5004936;28;20220;-53
2023/12/04 00:03:54;;;;;;;24.90;16.50;;;-0.30;99.90;;;;;;4995671;28;20204;-52
2023/12/04 00:06:19;;;;;;;24.17;15.80;;;-0.30;99.90;;;;;;5000358;28;20314;-56
2023/12/04 00:08:45;;;;;;;25.03;16.83;;;-0.30;99.90;;;;;;5003316;28;20193;-57
2023/12/04 00:11:10;;;;;;;26.97;17.10;;;-0.30;99.90;;;;;;5002433;28;20263;-54
2023/12/04 00:13:36;;;;;;;26.63;16.70;;;-0.40;99.90;;;;;;5001678;28;20739;-56
2023/12/04 00:16:02;;;;;;;27.23;16.13;;;-0.50;99.90;;;;;;4995895;28;20282;-55
2023/12/04 00:18:27;;;;;;;27.27;17.47;;;-0.60;99.90;;;;;;5002565;28;20238;-54
2023/12/04 00:20:53;;;;;;;23.77;15.27;;;-0.50;99.90;;;;;;5003658;28;20297;-53
2023/12/04 00:23:18;;;;;;;23.53;16.00;;;-0.50;99.90;;;;;;4993880;28;20210;-54
2023/12/04 00:25:44;;;;;;;29.33;17.43;;;-0.60;99.90;;;;;;5002117;28;20209;-56
2023/12/04 00:28:09;;;;;;;27.10;17.27;;;-0.50;99.90;;;;;;4998271;28;20235;-58
2023/12/04 00:30:35;;;;;;;29.87;19.10;;;-0.60;99.90;;;;;;4997923;28;20211;-58
2023/12/04 00:33:00;;;;;;;29.30;18.37;;;-0.60;99.90;;;;;;5003659;28;20231;-52
2023/12/04 00:35:26;;;;;;;26.53;17.50;;;-0.60;99.90;;;;;;5002330;28;20204;-55
2023/12/04 00:37:51;;;;;;;31.10;18.57;;;-0.70;99.90;;;;;;5009939;28;20588;-55
2023/12/04 00:40:17;;;;;;;30.20;17.33;;;-0.80;99.90;;;;;;4997541;28;20251;-65
2023/12/04 00:42:43;;;;;;;34.53;19.40;;;-1.00;99.90;;;;;;5013488;28;20192;-64
2023/12/04 00:45:08;;;;;;;31.77;20.93;;;-1.10;99.90;;;;;;5004996;28;20674;-65
2023/12/04 00:47:34;;;;;;;30.23;17.90;;;-1.20;99.90;;;;;;4981484;28;20338;-53
2023/12/04 00:49:59;;;;;;;32.07;20.10;;;-1.20;99.90;;;;;;4997128;28;20199;-53
2023/12/04 00:52:25;;;;;;;35.17;20.67;;;-1.20;99.90;;;;;;4987937;28;20410;-66
2023/12/04 00:54:51;;;;;;;34.53;18.53;;;-1.20;99.90;;;;;;4977336;28;20204;-53
2023/12/04 00:57:16;;;;;;;30.70;19.30;;;-1.20;99.90;;;;;;4991592;28;20260;-51
2023/12/04 00:59:42;;;;;;;35.90;18.57;;;-1.20;99.90;;;;;;4993971;28;20258;-54
2023/12/04 01:02:07;;;;;;;31.20;19.90;;;-1.30;99.90;;;;;;4993501;28;20280;-54
2023/12/04 01:04:33;;;;;;;34.43;20.03;;;-1.40;99.90;;;;;;4992118;28;20232;-51
2023/12/04 01:06:58;;;;;;;31.90;19.60;;;-1.40;99.90;;;;;;4992312;28;20259;-53
2023/12/04 01:09:24;;;;;;;36.57;21.37;;;-1.40;99.90;;;;;;4992963;28;20208;-52
2023/12/04 01:11:52;;;;;;;29.83;19.60;;;-1.40;99.90;;;;;;4992301;28;20205;-53
2023/12/04 01:14:17;;;;;;;34.80;20.77;;;-1.40;99.90;;;;;;4975930;28;20204;-53
2023/12/04 01:16:43;;;;;;;32.20;19.67;;;-1.40;99.90;;;;;;4994039;28;20196;-52
2023/12/04 01:19:09;;;;;;;32.63;20.20;;;-1.40;99.90;;;;;;4992546;28;20199;-52
2023/12/04 01:21:34;;;;;;;32.60;19.53;;;-1.50;99.90;;;;;;4996328;28;20220;-51
2023/12/04 01:23:59;;;;;;;35.13;20.87;;;-1.50;99.90;;;;;;4984156;28;20674;-51
2023/12/04 01:26:25;;;;;;;31.93;21.27;;;-1.50;99.90;;;;;;4999397;28;20195;-51
2023/12/04 01:28:50;;;;;;;33.50;21.20;;;-1.50;99.90;;;;;;4993009;28;20211;-52
2023/12/04 01:31:16;;;;;;;32.33;21.27;;;-1.50;99.90;;;;;;4998239;28;20196;-51
2023/12/04 01:33:41;;;;;;;36.90;20.97;;;-1.50;99.90;;;;;;4996014;28;20642;-52
2023/12/04 01:36:07;;;;;;;33.97;20.63;;;-1.50;99.90;;;;;;4978843;28;20227;-52
2023/12/04 01:38:33;;;;;;;37.50;21.53;;;-1.50;99.90;;;;;;4992205;28;20196;-52
2023/12/04 01:40:58;;;;;;;40.43;22.43;;;-1.50;99.90;;;;;;4992157;28;20290;-53
2023/12/04 01:43:24;;;;;;;36.40;22.83;;;-1.40;99.90;;;;;;4998115;28;20209;-52
2023/12/04 01:45:51;;;;;;;31.43;21.93;;;-1.40;99.90;;;;;;4996604;28;20234;-53
2023/12/04 01:48:17;;;;;;;34.77;21.20;;;-1.40;99.90;;;;;;5003509;28;20255;-53
2023/12/04 01:50:43;;;;;;;33.53;21.63;;;-1.40;99.90;;;;;;5000860;28;20682;-52
2023/12/04 01:53:09;;;;;;;37.13;22.67;;;-1.30;99.90;;;;;;5005159;28;20245;-53
2023/12/04 01:55:37;;;;;;;35.27;22.20;;;-1.30;99.90;;;;;;5004139;28;20581;-54
2023/12/04 01:58:03;;;;;;;39.10;21.33;;;-1.40;99.90;;;;;;5006252;28;21156;-53
2023/12/04 02:00:31;;;;;;;35.87;20.50;;;-1.30;99.90;;;;;;5002783;28;20330;-53
2023/12/04 02:02:57;;;;;;;35.50;22.00;;;-1.20;99.90;;;;;;5003761;28;20233;-53
2023/12/04 02:05:24;;;;;;;35.80;20.47;;;-1.20;99.90;;;;;;5001281;28;20204;-53
2023/12/04 02:07:50;;;;;;;36.50;21.03;;;-1.20;99.90;;;;;;5002962;28;20204;-53
2023/12/04 02:10:15;;;;;;;38.40;24.27;;;-1.20;99.90;;;;;;5005270;28;20539;-52
2023/12/04 02:12:41;;;;;;;36.37;22.00;;;-1.20;99.90;;;;;;5008787;28;20206;-53
2023/12/04 02:15:08;;;;;;;30.60;21.70;;;-1.20;99.90;;;;;;4997517;28;20261;-53
2023/12/04 02:17:34;;;;;;;33.27;20.77;;;-1.20;99.90;;;;;;5003458;28;20197;-51
2023/12/04 02:20:00;;;;;;;33.90;20.60;;;-1.30;99.90;;;;;;5006031;28;20595;-52
2023/12/04 02:22:26;;;;;;;30.77;20.23;;;-1.30;99.90;;;;;;5007458;28;20195;-54
2023/12/04 02:24:51;;;;;;;36.37;21.00;;;-1.30;99.90;;;;;;5003114;28;20200;-52
2023/12/04 02:27:28;;;;;;;43.33;22.27;;;-1.30;99.90;;;;;;5005120;28;20199;-52
2023/12/04 02:29:59;;;;;;;36.97;21.93;;;-1.50;99.90;;;;;;4994069;28;20271;-52
2023/12/04 02:32:28;;;;;;;38.30;20.67;;;-1.40;99.90;;;;;;4997460;28;20200;-52
2023/12/04 02:34:56;;;;;;;38.80;22.40;;;-1.50;99.90;;;;;;5005045;28;20195;-52
2023/12/04 02:37:22;;;;;;;34.73;19.50;;;-1.50;99.90;;;;;;4996340;28;20963;-52
2023/12/04 02:39:52;;;;;;;29.40;20.57;;;-1.40;99.90;;;;;;5009213;28;21041;-52
2023/12/04 02:42:19;;;;;;;30.40;20.03;;;-1.40;99.90;;;;;;4999254;28;20725;-52
2023/12/04 02:44:44;;;;;;;34.90;21.90;;;-1.40;99.90;;;;;;5001840;28;20312;-52
2023/12/04 02:47:10;;;;;;;36.53;19.93;;;-1.40;99.90;;;;;;5003238;28;20381;-52
2023/12/04 02:49:35;;;;;;;32.00;21.03;;;-1.40;99.90;;;;;;5005570;28;20208;-53
2023/12/04 02:52:02;;;;;;;34.23;21.43;;;-1.30;99.90;;;;;;5012959;28;20244;-52
2023/12/04 02:54:28;;;;;;;38.00;21.43;;;-1.30;99.90;;;;;;5013161;28;20280;-52
2023/12/04 02:56:53;;;;;;;33.20;20.23;;;-1.30;99.90;;;;;;5016651;28;20200;-52
2023/12/04 02:59:19;;;;;;;35.60;19.50;;;-1.20;99.90;;;;;;5004768;28;20199;-52
2023/12/04 03:01:44;;;;;;;30.93;19.17;;;-1.20;99.90;;;;;;5017171;28;20281;-52
2023/12/04 03:04:10;;;;;;;31.07;20.17;;;-1.20;99.90;;;;;;5009466;28;20214;-52
2023/12/04 03:06:36;;;;;;;33.37;21.63;;;-1.20;99.90;;;;;;5000931;28;20303;-53
2023/12/04 03:09:03;;;;;;;35.70;21.07;;;-1.20;99.90;;;;;;5013287;28;20258;-52
2023/12/04 03:11:29;;;;;;;29.33;18.80;;;-1.30;99.90;;;;;;5012604;28;20208;-52
2023/12/04 03:13:54;;;;;;;35.33;20.07;;;-1.30;99.90;;;;;;5009339;28;20549;-52
2023/12/04 03:16:20;;;;;;;34.67;20.73;;;-1.20;99.90;;;;;;5013128;28;20223;-53
2023/12/04 03:18:45;;;;;;;34.57;20.43;;;-1.20;99.90;;;;;;5019580;28;20209;-53
2023/12/04 03:21:11;;;;;;;31.93;20.27;;;-1.30;99.90;;;;;;5001888;28;20228;-53
2023/12/04 03:23:37;;;;;;;30.70;20.50;;;-1.20;99.90;;;;;;5014534;28;20571;-52
2023/12/04 03:26:03;;;;;;;32.73;19.77;;;-1.10;99.90;;;;;;5007968;28;20984;-52
2023/12/04 03:28:28;;;;;;;28.73;19.77;;;-1.10;99.90;;;;;;5018354;28;20199;-52
2023/12/04 03:30:54;;;;;;;33.97;18.43;;;-1.30;99.90;;;;;;5022358;28;21078;-53
2023/12/04 03:33:20;;;;;;;31.83;18.73;;;-1.40;99.90;;;;;;5019263;28;20895;-52
2023/12/04 03:35:45;;;;;;;34.87;19.97;;;-1.40;99.90;;;;;;5008186;28;20279;-52
2023/12/04 03:38:11;;;;;;;28.73;19.07;;;-1.50;99.90;;;;;;4999143;28;20554;-52
2023/12/04 03:40:36;;;;;;;34.10;20.00;;;-1.50;99.90;;;;;;5019722;28;20752;-53
2023/12/04 03:43:02;;;;;;;28.43;17.60;;;-1.50;99.90;;;;;;5018543;28;20349;-53
2023/12/04 03:45:27;;;;;;;28.37;18.50;;;-1.50;99.90;;;;;;5017482;28;20202;-52
2023/12/04 03:47:53;;;;;;;28.20;18.80;;;-1.40;99.90;;;;;;5013791;28;20196;-52
2023/12/04 03:50:18;;;;;;;26.80;18.33;;;-1.40;99.90;;;;;;5013893;28;20191;-52
2023/12/04 03:52:44;;;;;;;27.03;16.30;;;-1.30;99.90;;;;;;5015568;28;20828;-52
2023/12/04 03:55:10;;;;;;;29.03;18.10;;;-1.40;99.90;;;;;;5015947;28;20253;-55
2023/12/04 03:57:35;;;;;;;28.93;17.97;;;-1.50;99.90;;;;;;5013631;28;20199;-65
2023/12/04 04:00:01;;;;;;;28.00;17.10;;;-1.50;99.90;;;;;;5012770;28;20233;-62
2023/12/04 04:02:27;;;;;;;31.10;19.07;;;-1.50;99.90;;;;;;4994611;28;20195;-54
2023/12/04 04:04:53;;;;;;;30.23;20.07;;;-1.50;99.90;;;;;;5012924;28;20199;-66
2023/12/04 04:07:18;;;;;;;30.87;18.57;;;-1.50;99.90;;;;;;5012148;28;20268;-52
2023/12/04 04:09:44;;;;;;;28.67;19.03;;;-1.50;99.90;;;;;;5013623;28;20286;-52
2023/12/04 04:12:09;;;;;;;28.07;18.77;;;-1.60;99.90;;;;;;5013184;28;20200;-52
2023/12/04 04:14:35;;;;;;;28.90;18.17;;;-1.60;99.90;;;;;;5012852;28;20205;-52
2023/12/04 04:17:00;;;;;;;29.47;19.27;;;-1.50;99.90;;;;;;5012842;28;20748;-52
2023/12/04 04:19:26;;;;;;;31.07;18.73;;;-1.50;99.90;;;;;;5013083;28;20684;-51
2023/12/04 04:21:51;;;;;;;29.03;20.07;;;-1.50;99.90;;;;;;5013025;28;20314;-52
2023/12/04 04:24:17;;;;;;;32.63;18.27;;;-1.50;99.90;;;;;;4997488;28;20223;-52
2023/12/04 04:26:42;;;;;;;27.53;18.33;;;-1.50;99.90;;;;;;5012838;28;20231;-52
2023/12/04 04:29:09;;;;;;;29.20;19.07;;;-1.50;99.90;;;;;;5012674;28;20196;-52
2023/12/04 04:31:34;;;;;;;29.93;17.90;;;-1.60;99.90;;;;;;5012983;28;20566;-52
2023/12/04 04:34:01;;;;;;;26.47;18.33;;;-1.70;99.90;;;;;;5012982;28;20197;-52
2023/12/04 04:36:26;;;;;;;29.67;18.07;;;-1.70;99.90;;;;;;4998978;28;20658;-51
2023/12/04 04:38:52;;;;;;;28.53;17.20;;;-1.70;99.90;;;;;;5012386;28;20209;-51
2023/12/04 04:41:17;;;;;;;28.43;18.10;;;-1.70;99.90;;;;;;5014321;28;20212;-52
2023/12/04 04:43:43;;;;;;;32.13;19.00;;;-1.50;99.90;;;;;;5011974;28;20256;-52
2023/12/04 04:46:09;;;;;;;24.80;16.83;;;-1.50;99.90;;;;;;5010361;28;20862;-52
2023/12/04 04:48:35;;;;;;;25.50;19.13;;;-1.60;99.90;;;;;;5013047;28;20247;-52
2023/12/04 04:51:00;;;;;;;32.60;18.23;;;-1.50;99.90;;;;;;5012602;28;20682;-51
2023/12/04 04:53:26;;;;;;;26.47;18.17;;;-1.40;99.90;;;;;;5010782;28;20283;-52
2023/12/04 04:55:51;;;;;;;28.00;18.40;;;-1.50;99.90;;;;;;5012463;28;20270;-52
2023/12/04 04:58:17;;;;;;;29.43;17.90;;;-1.50;99.90;;;;;;4991757;28;20284;-52
2023/12/04 05:00:43;;;;;;;30.13;18.40;;;-1.50;99.90;;;;;;5011732;28;20300;-52
2023/12/04 05:03:09;;;;;;;27.53;17.47;;;-1.40;99.90;;;;;;5012083;28;20210;-52
2023/12/04 05:05:34;;;;;;;29.77;19.13;;;-1.50;99.90;;;;;;5012183;28;20206;-51
2023/12/04 05:08:00;;;;;;;27.80;17.53;;;-1.50;99.90;;;;;;5012067;28;20702;-52
2023/12/04 05:10:25;;;;;;;27.97;18.10;;;-1.50;99.90;;;;;;5012264;28;20390;-52
2023/12/04 05:12:51;;;;;;;25.57;16.67;;;-1.60;99.90;;;;;;4996233;28;20565;-52
2023/12/04 05:15:16;;;;;;;26.80;17.67;;;-1.70;99.90;;;;;;5007864;28;20571;-52
2023/12/04 05:17:42;;;;;;;30.47;16.20;;;-1.70;99.90;;;;;;5011054;28;20346;-52
2023/12/04 05:20:08;;;;;;;26.20;17.17;;;-1.70;99.90;;;;;;5012597;28;20230;-52
2023/12/04 05:22:35;;;;;;;28.83;17.57;;;-1.80;99.90;;;;;;5012247;28;20196;-53
2023/12/04 05:25:01;;;;;;;27.37;16.37;;;-1.70;99.90;;;;;;4994788;28;20208;-54
2023/12/04 05:27:26;;;;;;;26.10;17.30;;;-1.70;99.90;;;;;;5013641;28;20197;-52
2023/12/04 05:29:52;;;;;;;26.27;16.73;;;-1.60;99.90;;;;;;5011780;28;20207;-52
2023/12/04 05:32:17;;;;;;;27.10;17.20;;;-1.60;99.90;;;;;;5011982;28;20197;-52
2023/12/04 05:34:43;;;;;;;28.43;16.90;;;-1.60;99.90;;;;;;4995228;28;20274;-52
2023/12/04 05:37:08;;;;;;;26.23;16.77;;;-1.70;99.90;;;;;;4993235;28;20336;-53
2023/12/04 05:39:34;;;;;;;27.20;16.63;;;-1.60;99.90;;;;;;4994295;28;20205;-51
2023/12/04 05:42:00;;;;;;;24.70;15.80;;;-1.60;99.90;;;;;;4994984;28;20207;-52
2023/12/04 05:44:25;;;;;;;26.00;16.20;;;-1.60;99.90;;;;;;5011557;28;20207;-52
2023/12/04 05:46:51;;;;;;;26.13;16.30;;;-1.70;99.90;;;;;;5007906;28;20219;-51
2023/12/04 05:49:17;;;;;;;28.43;18.83;;;-1.70;99.90;;;;;;5011394;28;20202;-52
2023/12/04 05:51:43;;;;;;;27.67;17.37;;;-1.70;99.90;;;;;;5011147;28;20203;-52
2023/12/04 05:54:08;;;;;;;26.47;17.07;;;-1.60;99.90;;;;;;5011160;28;20558;-52
2023/12/04 05:56:34;;;;;;;23.97;15.43;;;-1.60;99.90;;;;;;5013449;28;20207;-52
2023/12/04 05:58:59;;;;;;;25.70;17.37;;;-1.60;99.90;;;;;;4993757;28;20215;-53
2023/12/04 06:01:25;;;;;;;27.50;17.67;;;-1.60;99.90;;;;;;5010719;28;20225;-53
2023/12/04 06:03:50;;;;;;;28.33;17.03;;;-1.50;99.90;;;;;;5010743;28;20255;-53
2023/12/04 06:06:16;;;;;;;22.60;14.83;;;-1.50;99.90;;;;;;5011635;28;20310;-53
2023/12/04 06:08:41;;;;;;;25.00;14.93;;;-1.50;99.90;;;;;;5011646;28;20372;-52
2023/12/04 06:11:07;;;;;;;24.67;15.87;;;-1.50;99.90;;;;;;5010965;28;20207;-52
2023/12/04 06:13:32;;;;;;;25.13;16.00;;;-1.40;99.90;;;;;;4994993;28;20204;-53
2023/12/04 06:15:58;;;;;;;27.77;15.93;;;-1.50;99.90;;;;;;5011060;28;20895;-52
2023/12/04 06:18:23;;;;;;;22.00;14.43;;;-1.50;99.90;;;;;;5009568;28;20199;-53
2023/12/04 06:20:49;;;;;;;22.83;14.00;;;-1.50;99.90;;;;;;5009905;28;20889;-52
2023/12/04 06:23:15;;;;;;;24.20;16.10;;;-1.60;99.90;;;;;;4994357;28;20201;-53
2023/12/04 06:25:41;;;;;;;28.90;16.03;;;-1.70;99.90;;;;;;5009525;28;20776;-53
2023/12/04 06:28:07;;;;;;;24.50;15.67;;;-1.70;99.90;;;;;;5012860;28;20611;-53
2023/12/04 06:30:33;;;;;;;26.27;16.77;;;-1.60;99.90;;;;;;5010618;28;20644;-53
2023/12/04 06:32:59;;;;;;;22.40;15.30;;;-1.60;99.90;;;;;;5010854;28;20196;-53
2023/12/04 06:35:25;;;;;;;21.73;14.83;;;-1.60;99.90;;;;;;5010930;28;20208;-52
2023/12/04 06:37:53;;;;;;;24.90;16.17;;;-1.70;99.90;;;;;;5010977;28;20197;-53
2023/12/04 06:40:19;;;;;;;26.57;15.77;;;-1.80;99.90;;;;;;5010900;28;20213;-53
2023/12/04 06:42:45;;;;;;;29.57;15.80;;;-1.90;99.90;;;;;;5011189;28;20592;-52
2023/12/04 06:45:11;;;;;;;20.97;13.13;;;-1.90;99.90;;;;;;5006935;28;20188;-53
2023/12/04 06:47:39;;;;;;;21.23;13.60;;;-1.90;99.90;;;;;;4993436;28;20295;-54
2023/12/04 06:50:05;;;;;;;27.00;15.90;;;-2.00;99.90;;;;;;4990754;28;20231;-53
2023/12/04 06:52:31;;;;;;;28.30;15.77;;;-1.90;99.90;;;;;;4992853;28;20197;-53
2023/12/04 06:54:56;;;;;;;26.10;15.60;;;-1.80;99.90;;;;;;5010509;28;20617;-56
2023/12/04 06:57:22;;;;;;;25.37;16.40;;;-1.90;99.90;;;;;;5008766;28;20192;-56
2023/12/04 06:59:47;;;;;;;22.10;15.17;;;-1.80;99.90;;;;;;5011481;28;20219;-53
2023/12/04 07:02:13;;;;;;;25.60;15.50;;;-1.80;99.90;;;;;;5012108;28;20223;-54
2023/12/04 07:04:39;;;;;;;20.50;14.93;;;-1.60;99.90;;;;;;5010250;28;20323;-54
2023/12/04 07:07:05;;;;;;;24.23;16.27;;;-1.60;99.90;;;;;;5010641;28;20196;-53
2023/12/04 07:09:32;;;;;;;26.20;15.97;;;-1.50;99.90;;;;;;5010632;28;20192;-53
2023/12/04 07:11:57;;;;;;;22.10;15.00;;;-1.40;99.90;;;;;;5010215;28;20921;-54
2023/12/04 07:14:23;;;;;;;22.83;15.60;;;-1.40;99.90;;;;;;5010445;28;20212;-54
2023/12/04 07:16:49;;;;;;;25.20;15.63;;;-1.30;99.90;;;;;;5012926;28;20280;-54
2023/12/04 07:19:16;;;;;;;26.17;16.80;;;-1.30;99.90;;;;;;5010696;28;20594;-53
2023/12/04 07:21:41;;;;;;;22.17;16.50;;;-1.20;99.90;;;;;;5010105;28;20240;-53
2023/12/04 07:24:07;;;;;;;22.53;14.67;;;-1.00;99.90;;;;;;5010434;28;20819;-64
2023/12/04 07:26:34;;;;;;;26.07;15.13;;;-0.90;99.90;;;;;;5010062;28;20215;-54
2023/12/04 07:29:01;;;;;;;22.47;14.97;;;-0.80;99.90;;;;;;5010068;28;20205;-53
2023/12/04 07:31:26;;;;;;;24.27;15.20;;;-0.80;99.90;;;;;;5009424;28;20300;-53
2023/12/04 07:33:53;;;;;;;25.23;15.57;;;-0.90;99.90;;;;;;5014028;28;20704;-53
2023/12/04 07:36:19;;;;;;;24.83;15.03;;;-1.00;99.90;;;;;;5013104;28;20192;-53
2023/12/04 07:38:45;;;;;;;20.97;13.40;;;-0.90;99.90;;;;;;5013038;28;20635;-53
2023/12/04 07:41:10;;;;;;;22.40;15.23;;;-0.80;99.90;;;;;;5013762;28;20225;-53
2023/12/04 07:43:36;;;;;;;20.93;13.47;;;-0.80;99.90;;;;;;4996652;28;20568;-53
2023/12/04 07:46:03;;;;;;;21.50;14.23;;;-0.80;99.90;;;;;;5009391;28;20239;-55
2023/12/04 07:48:29;;;;;;;21.43;13.23;;;-0.80;99.90;;;;;;5013640;28;20583;-66
2023/12/04 07:50:55;;;;;;;19.03;13.13;;;-0.80;99.90;;;;;;5016198;28;20558;-65
2023/12/04 07:53:22;;;;;;;20.90;13.63;;;-0.80;99.90;;;;;;5015848;28;20208;-63
2023/12/04 07:55:51;;;;;;;21.90;13.87;;;-0.80;99.90;;;;;;5014400;28;20199;-53
2023/12/04 07:58:17;;;;;;;22.93;13.77;;;-1.00;99.90;;;;;;5010925;28;20205;-53
2023/12/04 08:00:44;;;;;;;20.23;12.90;;;-0.80;99.90;;;;;;4995636;28;20227;-53
2023/12/04 08:03:10;;;;;;;22.83;14.27;;;-0.80;99.90;;;;;;4998720;28;20225;-65
2023/12/04 08:05:36;;;;;;;20.00;12.73;;;-0.70;99.90;;;;;;4996755;28;20201;-56
2023/12/04 08:08:02;;;;;;;18.13;12.37;;;-0.80;99.90;;;;;;5013421;28;20204;-53
2023/12/04 08:10:27;;;;;;;18.87;13.33;;;-0.80;99.90;;;;;;4994768;28;20197;-55
2023/12/04 08:12:53;;;;;;;19.77;13.20;;;-0.80;99.90;;;;;;5014947;28;20224;-53
2023/12/04 08:15:18;;;;;;;21.03;13.33;;;-0.60;99.90;;;;;;5013474;28;20203;-68
2023/12/04 08:17:44;;;;;;;19.80;13.43;;;-0.70;99.90;;;;;;5012208;28;20394;-53
2023/12/04 08:20:13;;;;;;;21.30;13.70;;;-0.80;99.90;;;;;;5011038;28;20223;-53
2023/12/04 08:22:41;;;;;;;19.50;12.87;;;-0.70;99.90;;;;;;5013203;28;20224;-53
2023/12/04 08:25:08;;;;;;;20.90;13.57;;;-0.80;99.90;;;;;;5013077;28;20214;-54
2023/12/04 08:27:33;;;;;;;21.47;13.83;;;-0.60;99.90;;;;;;5013731;28;20326;-54
2023/12/04 08:29:59;;;;;;;21.33;13.23;;;-0.50;99.90;;;;;;5000858;28;20291;-54
2023/12/04 08:32:28;;;;;;;21.17;13.27;;;-0.60;99.90;;;;;;5015131;28;20199;-54
2023/12/04 08:34:54;;;;;;;21.53;14.07;;;-0.50;99.90;;;;;;5013961;28;20203;-53
2023/12/04 08:37:20;;;;;;;23.50;13.40;;;-0.50;99.90;;;;;;5013258;28;20217;-54
2023/12/04 08:39:46;;;;;;;21.37;13.03;;;-0.40;99.90;;;;;;4998206;28;20786;-53
2023/12/04 08:42:12;;;;;;;18.10;11.93;;;-0.40;99.90;;;;;;5012831;28;20200;-62
2023/12/04 08:44:38;;;;;;;23.57;13.33;;;-0.40;99.90;;;;;;5012598;28;20736;-53
2023/12/04 08:47:03;;;;;;;20.80;12.63;;;-0.50;99.90;;;;;;4856553;23;20234;-52
2023/12/04 08:49:29;;;;;;;22.37;14.10;;;-0.40;99.90;;;;;;4991863;28;20201;-52
2023/12/04 08:51:55;;;;;;;22.87;14.43;;;-0.30;99.90;;;;;;4988985;28;20212;-53
2023/12/04 08:54:21;;;;;;;17.13;11.53;;;-0.20;99.90;;;;;;4990837;28;20214;-52
2023/12/04 08:56:46;;;;;;;19.90;12.87;;;-0.20;99.90;;;;;;4973389;28;20266;-52
2023/12/04 08:59:12;;;;;;;19.13;13.23;;;-0.20;99.90;;;;;;4991580;28;20678;-53
2023/12/04 09:01:38;;;;;;;18.43;12.83;;;-0.10;99.90;;;;;;4992281;28;20226;-53
2023/12/04 09:04:04;;;;;;;17.30;12.13;;;0.00;99.90;;;;;;4992029;28;20228;-53
2023/12/04 09:06:30;;;;;;;21.07;14.00;;;-0.10;99.90;;;;;;4994355;28;20225;-52
2023/12/04 09:08:55;;;;;;;21.27;12.17;;;-0.30;99.90;;;;;;4990869;28;20204;-53
2023/12/04 09:11:21;;;;;;;21.43;13.57;;;-0.20;99.90;;;;;;4975270;28;20197;-53
2023/12/04 09:13:47;;;;;;;17.07;12.10;;;-0.10;99.90;;;;;;4992383;28;20495;-52
2023/12/04 09:16:13;;;;;;;22.97;14.00;;;-0.10;99.90;;;;;;4992377;28;20598;-53
2023/12/04 09:18:39;;;;;;;19.33;13.90;;;0.00;99.90;;;;;;4992855;28;20210;-53
2023/12/04 09:21:04;;;;;;;17.23;11.30;;;-0.10;99.90;;;;;;4971698;28;20314;-52
2023/12/04 09:23:30;;;;;;;19.93;12.60;;;-0.20;99.90;;;;;;4973728;28;20210;-53
2023/12/04 09:25:56;;;;;;;20.33;14.57;;;-0.20;99.90;;;;;;4970703;28;20284;-53
2023/12/04 09:28:21;;;;;;;20.30;14.37;;;-0.10;99.90;;;;;;4973106;28;20309;-52
2023/12/04 09:30:47;;;;;;;17.63;12.57;;;-0.10;99.90;;;;;;4972475;28;20541;-52
2023/12/04 09:33:12;;;;;;;20.53;13.73;;;0.00;99.90;;;;;;4972657;28;20214;-53
2023/12/04 09:35:38;;;;;;;18.47;12.60;;;0.00;99.90;;;;;;4972646;28;20226;-53
2023/12/04 09:38:03;;;;;;;17.10;11.40;;;0.00;99.90;;;;;;4965327;28;20207;-53
2023/12/04 09:40:29;;;;;;;18.23;12.07;;;0.00;99.90;;;;;;4962677;28;20308;-53
2023/12/04 09:42:55;;;;;;;16.47;10.90;;;0.00;99.90;;;;;;4972341;28;20382;-53
2023/12/04 09:45:23;;;;;;;16.77;11.87;;;0.10;99.90;;;;;;4970568;28;20215;-53
2023/12/04 09:47:49;;;;;;;21.37;11.73;;;0.20;99.90;;;;;;4964223;28;20255;-52
2023/12/04 09:50:17;;;;;;;19.60;12.23;;;0.20;99.90;;;;;;4959278;28;20295;-52
2023/12/04 09:52:42;;;;;;;27.80;14.20;;;0.30;99.90;;;;;;4960870;28;20199;-53
2023/12/04 09:55:08;;;;;;;16.80;12.37;;;0.20;99.90;;;;;;4958250;28;20205;-53
2023/12/04 09:57:35;;;;;;;15.40;11.20;;;0.10;99.90;;;;;;4957630;28;20799;-53
2023/12/04 10:00:02;;;;;;;19.03;11.77;;;0.10;99.90;;;;;;4961140;28;20663;-53
2023/12/04 10:02:28;;;;;;;22.27;13.20;;;0.10;99.90;;;;;;4960134;28;20293;-53
2023/12/04 10:04:53;;;;;;;19.07;12.27;;;0.10;99.90;;;;;;4958528;28;20198;-52
2023/12/04 10:07:19;;;;;;;17.47;11.87;;;0.20;99.90;;;;;;4957879;28;20260;-52
2023/12/04 10:09:44;;;;;;;17.47;11.83;;;0.20;99.90;;;;;;4959477;28;20226;-52
2023/12/04 10:12:10;;;;;;;19.13;12.40;;;0.20;99.90;;;;;;4955408;28;20216;-53
2023/12/04 10:14:36;;;;;;;18.83;12.57;;;0.20;99.90;;;;;;4960285;28;20669;-54
2023/12/04 10:17:15;;;;;;;16.73;10.93;;;0.20;99.90;;;;;;4967436;28;20583;-53
2023/12/04 10:19:41;;;;;;;20.20;12.30;;;0.20;99.90;;;;;;4963922;28;20206;-52
2023/12/04 10:22:10;;;;;;;20.07;12.53;;;0.30;99.90;;;;;;4965130;28;20203;-52
2023/12/04 10:24:37;;;;;;;15.83;11.60;;;0.40;99.90;;;;;;4972603;28;20214;-52
2023/12/04 10:27:04;;;;;;;18.93;11.23;;;0.40;99.90;;;;;;4962776;28;20199;-52
2023/12/04 10:29:47;;;;;;;19.43;13.63;;;0.40;99.90;;;;;;4962320;28;20268;-52
2023/12/04 10:32:12;;;;;;;21.43;13.17;;;0.40;99.90;;;;;;4952002;28;20224;-53
2023/12/04 10:34:38;;;;;;;23.20;12.87;;;0.50;99.90;;;;;;4955059;28;20203;-53
2023/12/04 10:37:04;;;;;;;20.80;12.07;;;0.60;99.90;;;;;;4952734;28;20965;-64
2023/12/04 10:39:31;;;;;;;18.13;12.07;;;0.70;99.90;;;;;;4955823;28;20207;-54
2023/12/04 10:42:01;;;;;;;15.83;12.03;;;0.80;99.90;;;;;;4950490;28;20257;-65
2023/12/04 10:44:27;;;;;;;17.17;12.47;;;0.80;99.90;;;;;;4953497;28;20217;-53
2023/12/04 10:47:01;;;;;;;19.40;12.17;;;0.50;99.90;;;;;;4956790;28;20227;-54
2023/12/04 10:49:27;;;;;;;17.80;11.93;;;0.50;99.90;;;;;;4970845;28;20200;-55
2023/12/04 10:51:56;;;;;;;16.10;11.03;;;0.60;99.90;;;;;;4974020;28;20801;-54
2023/12/04 10:54:23;;;;;;;20.53;12.63;;;0.70;99.90;;;;;;4972227;28;20988;-54
2023/12/04 10:56:51;;;;;;;21.17;13.23;;;0.70;99.90;;;;;;4978349;28;20209;-53
2023/12/04 10:59:23;;;;;;;19.37;12.10;;;0.70;99.90;;;;;;4971660;28;20196;-53
2023/12/04 11:01:51;;;;;;;17.33;11.30;;;0.80;99.90;;;;;;4972781;28;20239;-56
2023/12/04 11:04:20;;;;;;;16.53;11.53;;;0.50;99.90;;;;;;4971548;28;20756;-54
2023/12/04 11:06:49;;;;;;;16.03;10.60;;;0.60;99.90;;;;;;4976679;28;20201;-53
2023/12/04 11:09:18;;;;;;;19.00;12.23;;;0.40;99.90;;;;;;4973301;28;20749;-52
2023/12/04 11:11:51;;;;;;;17.13;11.47;;;0.40;99.90;;;;;;4975199;28;20343;-54
2023/12/04 11:14:22;;;;;;;15.73;10.87;;;0.40;99.90;;;;;;4975581;28;20218;-53
2023/12/04 11:17:03;;;;;;;17.43;11.43;;;0.40;99.90;;;;;;4974455;28;20667;-52
2023/12/04 11:19:55;;;;;;;15.00;11.40;;;0.40;99.90;;;;;;4975101;28;20207;-55
2023/12/04 11:22:21;;;;;;;18.00;11.17;;;0.50;99.90;;;;;;4979445;28;20958;-53
2023/12/04 11:24:48;;;;;;;17.27;11.83;;;0.50;99.90;;;;;;4979946;28;20209;-52
2023/12/04 11:27:16;;;;;;;17.77;10.83;;;0.50;99.90;;;;;;4956988;28;20216;-53
2023/12/04 11:29:42;;;;;;;17.77;12.30;;;0.60;99.90;;;;;;4976937;28;20193;-53
2023/12/04 11:32:12;;;;;;;18.30;12.57;;;0.50;99.90;;;;;;4975167;28;20297;-52
2023/12/04 11:34:47;;;;;;;17.40;10.90;;;0.50;99.90;;;;;;4975878;28;20203;-52
2023/12/04 11:37:13;;;;;;;20.30;12.73;;;0.50;99.90;;;;;;4974275;28;20231;-52
2023/12/04 11:39:39;;;;;;;18.07;11.47;;;0.60;99.90;;;;;;4976503;28;20209;-55
2023/12/04 11:42:06;;;;;;;17.87;11.03;;;0.70;99.90;;;;;;4976502;28;20211;-53
2023/12/04 11:44:32;;;;;;;17.40;10.97;;;0.70;99.90;;;;;;4976672;28;21108;-54
2023/12/04 11:47:06;;;;;;;15.80;11.00;;;0.70;99.90;;;;;;4966906;28;20236;-66
2023/12/04 11:49:32;;;;;;;16.03;10.77;;;0.70;99.90;;;;;;4966945;28;20199;-55
2023/12/04 11:51:59;;;;;;;14.13;10.93;;;0.80;99.90;;;;;;4957021;28;20208;-54
2023/12/04 11:54:27;;;;;;;15.63;11.00;;;0.70;99.90;;;;;;4954852;28;20268;-54
2023/12/04 11:57:01;;;;;;;16.90;10.27;;;0.70;99.90;;;;;;4955128;28;20302;-54
2023/12/04 11:59:26;;;;;;;15.03;10.77;;;0.90;99.90;;;;;;4955334;28;20204;-54
2023/12/04 12:01:58;;;;;;;16.00;10.57;;;1.00;99.90;;;;;;4955272;28;20258;-54
2023/12/04 12:04:26;;;;;;;18.87;12.17;;;1.10;99.90;;;;;;4969727;28;20286;-53
2023/12/04 12:06:52;;;;;;;16.70;11.60;;;1.10;99.90;;;;;;4953721;28;20235;-54
2023/12/04 12:09:18;;;;;;;16.73;11.57;;;1.10;99.90;;;;;;4955071;28;20625;-59
2023/12/04 12:11:46;;;;;;;15.47;10.97;;;1.10;99.90;;;;;;4954760;28;20194;-53
2023/12/04 12:14:13;;;;;;;17.77;11.53;;;1.00;99.90;;;;;;4954837;28;20686;-53
2023/12/04 12:16:38;;;;;;;14.93;10.53;;;0.90;99.90;;;;;;4953158;28;20199;-54
2023/12/04 12:19:04;;;;;;;15.33;10.67;;;0.80;99.90;;;;;;4954595;28;20211;-54
2023/12/04 12:21:29;;;;;;;17.27;9.77;;;0.80;99.90;;;;;;4953667;28;20222;-54
2023/12/04 12:23:55;;;;;;;14.47;11.23;;;0.90;99.90;;;;;;4951433;28;20231;-54